Time;durP1;ratioP1;P1;durP2;ratioP2;P2;SDS_P1;SDS_P2;PMS_P1;PMS_P2;Temp;Humidity;BMP_temperature;BMP_pressure;BME280_temperature;BME280_humidity;BME280_pressure;Samples;Min_cycle;Max_cycle;Signal;HPM_P1;HPM_P2
2021/08/18 20:04:46;;;;;;;;;;;;;;;;;;329972;28;21825;-64
2021/08/18 20:04:57;;;;;;;;;;;;;;;;;;333802;28;10259;-66
2021/08/18 20:07:58;;;;;;;;;;;;;;;;;;332509;27;19911;-60
2021/08/18 20:08:09;;;;;;;;;;;;;;;;;;333183;27;10586;-72
2021/08/18 20:08:21;;;;;;;;;;;;;;;;;;314074;28;496263;-66
2021/08/18 20:08:32;;;;;;;;;;;;;;;;;;351833;28;1932;-63
2021/08/18 21:05:41;;;;;;;;;;;;;;;;;;353712;27;19918;-65
2021/08/18 21:06:01;;;;;;;;;;;;;;;;;;353549;27;19911;-52
2021/08/18 21:06:12;;;;;;;;;;;;;;;;;;354463;28;2053;-59
2021/08/18 21:06:26;;;;;;;;;;;;;;;;;;352816;28;796;-56
2021/08/18 21:06:40;;;;;;;;;;;;;;;;;;351554;28;612;-69
2021/08/18 21:06:50;;;;;;;;;;;;;;;;;;352218;28;2006;-62
2021/08/18 21:07:01;;;;;;;;;;;;;;;;;;351575;28;724;-53
2021/08/18 21:07:11;;;;;;;;;;;;;;;;;;351550;28;2058;-54
2021/08/18 21:07:22;;;;;;;;;;;;;;;;;;351607;28;463;-55
2021/08/18 21:07:33;;;;;;;;;;;;;;;;;;350271;28;1944;-57
2021/08/18 21:07:43;;;;;;;;;;;;;;;;;;350222;28;601;-54
2021/08/18 21:07:54;;;;;;;;;;;;;;;;;;351376;28;1543;-55
2021/08/18 21:08:04;;;;;;;;;;;;;;;;;;351573;28;700;-54
2021/08/18 21:08:15;;;;;;;;;;;;;;;;;;350521;28;451;-61
2021/08/18 21:08:27;;;;;;;;;;;;;;;;;;353110;28;1910;-51
2021/08/18 21:20:33;;;;;;;;;;;;;;;;;;355249;27;19923;-66
2021/08/18 21:20:43;;;;;;;;;;;;;;;;;;355973;27;636;-64
2021/08/18 21:20:54;;;;;;;;;;;;;;;;;;355823;27;1975;-63
2021/08/18 21:21:04;;;;;;;;;;;;;;;;;;355901;27;632;-69
2021/08/18 21:21:15;;;;;;;;;;;;;;;;;;354374;28;833;-69
2021/08/18 21:21:26;;;;;;;;;;;;;;;;;;354311;28;695;-65
2021/08/18 21:21:36;;;;;;;;;;;;;;;;;;354425;28;589;-66
2021/08/18 21:21:47;;;;;;;;;;;;;;;;;;352933;28;1104;-67
2021/08/18 21:21:58;;;;;;;;;;;;;;;;;;353060;28;434;-70
2021/08/18 21:22:11;;;;;;;;;;;;;;;;;;352963;28;698;-68
2021/08/18 21:22:21;;;;;;;;;;;;;;;;;;352872;28;698;-70
2021/08/18 21:22:32;;;;;;;;;;;;;;;;;;352934;28;585;-68
2021/08/18 21:22:42;;;;;;;;;;;;;;;;;;353060;28;589;-63
2021/08/18 21:22:53;;;;;;;;;;;;;;;;;;352981;28;743;-68
2021/08/18 21:23:04;;;;;;;;;;;;;;;;;;353004;28;458;-63
2021/08/18 21:23:14;;;;;;;;;;;;;;;;;;354208;28;427;-65
2021/08/18 21:23:25;;;;;;;;;;;;;;;;;;354305;28;829;-64
2021/08/18 21:23:35;;;;;;;;;;;;;;;;;;354404;28;652;-65
2021/08/18 21:23:46;;;;;;;;;;;;;;;;;;355217;27;1083;-66
2021/08/18 21:23:56;;;;;;;;;;;;;;;;;;354423;28;711;-65
2021/08/18 21:24:07;;;;;;;;;;;;;;;;;;354433;28;549;-69
2021/08/18 21:24:20;;;;;;;;;;;;;;;;;;354439;28;627;-62
2021/08/18 21:24:30;;;;;;;;;;;;;;;;;;354305;28;800;-63
2021/08/18 21:24:42;;;;;;;;;;;;;;;;;;354445;28;585;-67
2021/08/18 21:24:53;;;;;;;;;;;;;;;;;;354391;28;585;-68
2021/08/18 21:25:04;;;;;;;;;;;;;;;;;;354298;28;609;-67
2021/08/18 21:25:15;;;;;;;;;;;;;;;;;;354426;28;885;-66
2021/08/18 21:25:26;;;;;;;;;;;;;;;;;;354701;27;1479;-67
2021/08/18 21:25:57;;;;;;;;;;;;;;;;;;352472;27;19919;-57
2021/08/18 21:26:08;;;;;;;;;;;;;;;;;;352882;28;1630;-63
2021/08/18 21:26:19;;;;;;;;;;;;;;;;;;353123;28;621;-58
2021/08/18 21:26:29;;;;;;;;;;;;;;;;;;353139;28;636;-58
2021/08/18 21:26:43;;;;;;;;;;;;;;;;;;353056;28;719;-68
2021/08/18 21:26:54;;;;;;;;;;;;;;;;;;353042;28;608;-66
2021/08/18 21:27:05;;;;;;;;;;;;;;;;;;353015;28;743;-59
2021/08/18 21:27:15;;;;;;;;;;;;;;;;;;353166;28;581;-60
2021/08/18 21:30:30;;;;;;;;;;;;;;;;;;353780;27;19937;-58
2021/08/18 21:30:41;;;;;;;;;;;;;;;;;;354469;27;836;-59
2021/08/18 21:30:54;;;;;;;;;;;;;;;;;;354328;27;1428;-60
2021/08/18 21:31:05;;;;;;;;;;;;;;;;;;354457;27;1515;-64
2021/08/18 21:31:15;;;;;;;;;;;;;;;;;;354432;28;813;-61
2021/08/18 21:31:26;;;;;;;;;;;;;;;;;;354453;28;593;-57
2021/08/18 21:31:36;;;;;;;;;;;;;;;;;;353080;28;609;-59
2021/08/18 21:31:47;;;;;;;;;;;;;;;;;;353493;28;1167;-57
2021/08/18 21:32:00;;;;;;;;;;;;;;;;;;354510;28;588;-67
2021/08/18 21:32:11;;;;;;;;;;;;;;;;;;354416;28;766;-70
2021/08/18 21:32:22;;;;;;;;;;;;;;;;;;354271;28;637;-64
2021/08/18 21:32:33;;;;;;;;;;;;;;;;;;354371;28;624;-64
2021/08/18 21:32:44;;;;;;;;;;;;;;;;;;354418;28;739;-66
